createdAt,value
2022-07-29T00:02:00.617Z,16.32
2022-07-29T00:04:30.617Z,16.24
2022-07-29T00:06:59.266Z,16.18
2022-07-29T00:09:30.589Z,16.18
2022-07-29T00:12:02.112Z,16.19
2022-07-29T00:14:30.861Z,16.27
2022-07-29T00:17:03.009Z,16.35
2022-07-29T00:19:31.299Z,16.16
2022-07-29T00:22:01.563Z,16.14
2022-07-29T00:24:29.831Z,16.20
2022-07-29T00:26:58.833Z,16.18
2022-07-29T00:29:34.169Z,16.17
2022-07-29T00:32:12.047Z,16.14
2022-07-29T00:35:05.828Z,16.12
2022-07-29T00:37:34.908Z,16.01
2022-07-29T00:40:03.156Z,15.93
2022-07-29T00:42:34.105Z,16.00
2022-07-29T00:45:02.227Z,16.22
2022-07-29T00:47:34.253Z,15.99
2022-07-29T00:50:03.904Z,15.77
2022-07-29T00:52:35.457Z,15.93
2022-07-29T00:55:08.649Z,15.96
2022-07-29T00:57:38.307Z,15.92
2022-07-29T01:00:08.784Z,15.87
2022-07-29T01:02:40.606Z,15.86
2022-07-29T01:05:14.557Z,15.88
2022-07-29T01:07:43.969Z,15.80
2022-07-29T01:10:16.898Z,15.85
2022-07-29T01:12:52.203Z,15.84
2022-07-29T01:15:20.670Z,15.80
2022-07-29T01:17:59.932Z,15.92
2022-07-29T01:20:42.214Z,15.84
2022-07-29T01:23:35.062Z,15.90
2022-07-29T01:26:23.574Z,15.82
2022-07-29T01:29:10.959Z,15.56
2022-07-29T01:31:58.757Z,15.80
2022-07-29T01:34:33.556Z,15.64
2022-07-29T01:37:12.218Z,15.66
2022-07-29T01:39:43.748Z,15.68
2022-07-29T01:42:20.224Z,15.63
2022-07-29T01:44:56.405Z,15.52
2022-07-29T01:47:35.808Z,15.54
2022-07-29T01:50:12.564Z,15.52
2022-07-29T01:52:48.746Z,14.77
2022-07-29T01:55:19.869Z,15.36
2022-07-29T01:57:52.367Z,15.58
2022-07-29T02:00:24.229Z,15.61
2022-07-29T02:02:55.266Z,15.48
2022-07-29T02:05:27.071Z,15.47
2022-07-29T02:07:57.834Z,15.46
2022-07-29T02:10:29.879Z,15.44
2022-07-29T02:13:00.456Z,15.44
2022-07-29T02:15:49.972Z,15.41
2022-07-29T02:18:22.684Z,15.42
2022-07-29T02:21:00.570Z,15.50
2022-07-29T02:23:32.894Z,15.49
2022-07-29T02:26:22.766Z,15.35
2022-07-29T02:28:54.464Z,15.47
2022-07-29T02:31:31.243Z,15.28
2022-07-29T02:34:02.409Z,15.41
2022-07-29T02:36:33.300Z,15.35
2022-07-29T02:39:04.866Z,15.48
2022-07-29T02:41:39.611Z,15.16
2022-07-29T02:44:17.397Z,15.29
2022-07-29T02:46:52.255Z,15.23
2022-07-29T02:49:33.375Z,15.14
2022-07-29T02:52:09.205Z,15.24
2022-07-29T02:54:43.742Z,15.21
2022-07-29T02:57:21.600Z,15.19
2022-07-29T02:59:57.056Z,15.23
2022-07-29T03:02:29.301Z,15.20
2022-07-29T03:05:02.075Z,15.28
2022-07-29T03:07:32.048Z,15.22
2022-07-29T03:10:04.447Z,15.17
2022-07-29T03:12:37.494Z,15.19
2022-07-29T03:15:10.342Z,15.14
2022-07-29T03:17:41.882Z,15.12
2022-07-29T03:20:12.322Z,15.14
2022-07-29T03:22:45.042Z,15.12
2022-07-29T03:25:17.976Z,14.95
2022-07-29T03:27:48.222Z,15.00
2022-07-29T03:30:21.879Z,15.27
2022-07-29T03:32:53.511Z,15.22
2022-07-29T03:35:22.586Z,15.11
2022-07-29T03:37:53.651Z,15.17
2022-07-29T03:40:33.246Z,14.58
2022-07-29T03:43:03.633Z,15.03
2022-07-29T03:45:34.273Z,15.09
2022-07-29T03:48:13.245Z,15.09
2022-07-29T03:50:45.385Z,15.15
2022-07-29T03:53:16.643Z,14.89
2022-07-29T03:55:57.324Z,14.97
2022-07-29T03:58:33.106Z,14.90
2022-07-29T04:01:02.069Z,14.87
2022-07-29T04:03:38.048Z,14.87
2022-07-29T04:06:09.066Z,14.29
2022-07-29T04:08:40.376Z,14.95
2022-07-29T04:11:09.260Z,14.90
2022-07-29T04:13:38.654Z,14.87
2022-07-29T04:16:07.115Z,14.84
2022-07-29T04:18:35.733Z,14.83
2022-07-29T04:21:08.591Z,14.78
2022-07-29T04:23:47.947Z,14.78
2022-07-29T04:26:22.412Z,14.79
2022-07-29T04:28:52.773Z,14.73
2022-07-29T04:31:25.554Z,14.75
2022-07-29T04:33:56.870Z,14.74
2022-07-29T04:36:30.191Z,14.77
2022-07-29T04:38:59.276Z,14.76
2022-07-29T04:41:32.695Z,14.77
2022-07-29T04:44:07.537Z,14.80
2022-07-29T04:46:37.543Z,14.59
2022-07-29T04:49:06.349Z,14.67
2022-07-29T04:51:36.016Z,14.64
2022-07-29T04:54:04.639Z,14.68
2022-07-29T04:56:33.474Z,14.73
2022-07-29T04:59:01.925Z,14.79
2022-07-29T05:01:29.957Z,14.87
2022-07-29T05:04:00.493Z,14.86
2022-07-29T05:06:29.382Z,14.86
2022-07-29T05:09:01.800Z,14.96
2022-07-29T05:11:33.018Z,15.06
2022-07-29T05:14:01.114Z,15.02
2022-07-29T05:16:30.599Z,15.03
2022-07-29T05:18:59.376Z,15.05
2022-07-29T05:21:27.829Z,15.04
2022-07-29T05:23:56.034Z,15.09
2022-07-29T05:26:28.658Z,15.12
2022-07-29T05:28:58.075Z,14.99
2022-07-29T05:31:30.590Z,14.98
2022-07-29T05:33:59.144Z,14.87
2022-07-29T05:36:27.560Z,14.98
2022-07-29T05:38:56.284Z,15.16
2022-07-29T05:41:24.655Z,15.20
2022-07-29T05:43:55.716Z,15.46
2022-07-29T05:46:24.420Z,15.57
2022-07-29T05:48:53.317Z,15.60
2022-07-29T05:51:22.841Z,15.50
2022-07-29T05:53:50.971Z,15.48
2022-07-29T05:56:20.117Z,15.58
2022-07-29T05:58:53.443Z,15.43
2022-07-29T06:01:24.336Z,15.63
2022-07-29T06:03:55.524Z,15.48
2022-07-29T06:06:26.225Z,15.40
2022-07-29T06:08:55.005Z,15.42
2022-07-29T06:11:28.326Z,15.52
2022-07-29T06:13:56.780Z,15.60
2022-07-29T06:16:30.330Z,15.65
2022-07-29T06:19:01.938Z,15.89
2022-07-29T06:21:32.693Z,16.28
2022-07-29T06:24:01.382Z,16.69
2022-07-29T06:26:32.637Z,16.90
2022-07-29T06:29:04.781Z,17.27
2022-07-29T06:31:37.641Z,17.39
2022-07-29T06:34:06.116Z,17.26
2022-07-29T06:36:37.904Z,17.44
2022-07-29T06:39:07.734Z,17.60
2022-07-29T06:41:38.143Z,17.66
2022-07-29T06:44:11.711Z,17.68
2022-07-29T06:46:44.605Z,17.44
2022-07-29T06:49:15.385Z,17.69
2022-07-29T06:51:44.902Z,17.76
2022-07-29T06:54:15.762Z,17.89
2022-07-29T06:56:44.530Z,18.19
2022-07-29T06:59:14.339Z,18.44
2022-07-29T07:01:47.397Z,18.51
2022-07-29T07:04:16.976Z,18.62
2022-07-29T07:06:51.658Z,18.63
2022-07-29T07:09:19.671Z,18.73
2022-07-29T07:11:52.969Z,18.85
2022-07-29T07:14:22.260Z,18.93
2022-07-29T07:16:52.938Z,18.99
2022-07-29T07:19:23.185Z,19.03
2022-07-29T07:21:54.801Z,19.15
2022-07-29T07:24:26.365Z,18.49
2022-07-29T07:26:57.806Z,18.92
2022-07-29T07:29:27.343Z,18.94
2022-07-29T07:32:00.749Z,18.83
2022-07-29T07:34:32.115Z,18.83
2022-07-29T07:37:04.438Z,18.75
2022-07-29T07:39:33.090Z,18.13
2022-07-29T07:42:01.209Z,18.97
2022-07-29T07:44:30.729Z,19.19
2022-07-29T07:47:03.929Z,19.27
2022-07-29T07:49:43.936Z,19.47
2022-07-29T07:52:13.553Z,19.43
2022-07-29T07:54:43.983Z,19.57
2022-07-29T07:57:13.309Z,19.45
2022-07-29T07:59:43.758Z,19.49
2022-07-29T08:02:16.432Z,19.54
2022-07-29T08:04:44.863Z,19.40
2022-07-29T08:07:15.921Z,19.57
2022-07-29T08:09:44.560Z,19.56
2022-07-29T08:12:14.183Z,19.65
2022-07-29T08:14:47.237Z,19.65
2022-07-29T08:17:16.729Z,19.59
2022-07-29T08:19:45.413Z,19.48
2022-07-29T08:22:16.681Z,19.71
2022-07-29T08:24:45.126Z,19.56
2022-07-29T08:27:41.931Z,19.56
2022-07-29T08:30:07.769Z,19.62
2022-07-29T08:32:56.208Z,19.62
2022-07-29T08:35:26.005Z,19.62
2022-07-29T08:37:57.853Z,19.64
2022-07-29T08:40:30.494Z,19.77
2022-07-29T08:43:07.926Z,19.76
2022-07-29T08:45:48.119Z,19.58
2022-07-29T08:48:23.718Z,19.40
2022-07-29T08:50:55.290Z,19.57
2022-07-29T08:53:27.414Z,19.51
2022-07-29T08:55:57.613Z,19.49
2022-07-29T08:58:27.576Z,19.42
2022-07-29T09:00:58.388Z,19.66
2022-07-29T09:03:34.193Z,19.84
2022-07-29T09:06:03.032Z,19.82
2022-07-29T09:08:35.866Z,19.79
2022-07-29T09:11:05.534Z,18.77
2022-07-29T09:13:35.385Z,20.24
2022-07-29T09:16:12.276Z,20.21
2022-07-29T09:18:46.476Z,20.21
2022-07-29T15:05:44.803Z,26.06
2022-07-29T15:08:17.406Z,25.90
2022-07-29T15:10:46.169Z,25.81
2022-07-29T15:13:14.590Z,25.67
2022-07-29T15:15:46.521Z,25.67
2022-07-29T15:18:25.492Z,25.71
2022-07-29T15:20:58.390Z,25.90
2022-07-29T15:23:29.045Z,25.86
2022-07-29T15:25:57.485Z,25.79
2022-07-29T15:28:28.935Z,25.86
2022-07-29T15:31:01.357Z,25.96
2022-07-29T15:33:35.492Z,25.89
2022-07-29T15:36:06.272Z,25.71
2022-07-29T15:38:36.318Z,25.67
2022-07-29T15:41:16.549Z,25.41
2022-07-29T15:43:47.826Z,25.53
2022-07-29T15:46:34.458Z,25.59
2022-07-29T15:49:05.007Z,25.40
2022-07-29T15:51:37.910Z,25.46
2022-07-29T15:54:06.715Z,25.36
2022-07-29T15:56:36.212Z,25.42
2022-07-29T15:59:05.268Z,25.21
2022-07-29T16:01:42.516Z,25.17
2022-07-29T16:04:12.521Z,25.38
2022-07-29T16:06:42.164Z,25.26
2022-07-29T16:09:11.109Z,25.29
2022-07-29T16:11:42.551Z,25.23
2022-07-29T16:14:14.280Z,24.90
2022-07-29T16:16:42.822Z,24.81
2022-07-29T16:19:11.542Z,24.83
2022-07-29T16:21:40.079Z,24.81
2022-07-29T16:24:14.800Z,24.93
2022-07-29T16:26:43.288Z,24.83
2022-07-29T16:29:11.346Z,24.83
2022-07-29T16:31:39.770Z,24.88
2022-07-29T16:34:08.125Z,24.67
2022-07-29T16:36:39.439Z,24.42
2022-07-29T16:39:10.967Z,24.37
2022-07-29T16:41:44.616Z,24.43
2022-07-29T16:44:16.242Z,24.12
2022-07-29T16:46:49.613Z,24.16
2022-07-29T16:49:19.347Z,24.27
2022-07-29T16:51:49.343Z,24.08
2022-07-29T16:54:17.729Z,23.80
2022-07-29T16:56:49.500Z,23.88
2022-07-29T16:59:17.682Z,23.62
2022-07-29T17:01:46.079Z,23.62
2022-07-29T17:04:15.289Z,23.78
2022-07-29T17:06:43.800Z,23.70
2022-07-29T17:09:18.126Z,23.49
2022-07-29T17:11:52.531Z,23.75
2022-07-29T17:14:25.822Z,23.51
2022-07-29T17:17:01.109Z,23.34
2022-07-29T17:19:42.088Z,23.35
2022-07-29T17:22:17.237Z,23.32
2022-07-29T17:24:49.413Z,23.18
2022-07-29T17:27:18.964Z,22.83
2022-07-29T17:29:55.059Z,22.86
2022-07-29T17:32:23.423Z,22.94
2022-07-29T17:35:00.706Z,22.87
2022-07-29T17:37:33.966Z,23.08
2022-07-29T17:40:02.401Z,22.89
2022-07-29T17:42:31.457Z,22.66
2022-07-29T17:45:07.209Z,22.72
2022-07-29T17:47:38.340Z,22.75
2022-07-29T17:50:09.925Z,22.65
2022-07-29T17:52:39.229Z,22.50
2022-07-29T17:55:10.979Z,22.62
2022-07-29T17:57:47.629Z,22.52
2022-07-29T18:00:19.655Z,22.50
2022-07-29T18:02:50.093Z,22.54
2022-07-29T18:05:21.276Z,22.43
2022-07-29T18:07:50.292Z,22.41
2022-07-29T18:10:18.373Z,22.37
2022-07-29T18:12:47.258Z,22.26
2022-07-29T18:15:15.619Z,22.15
2022-07-29T18:17:56.483Z,22.14
2022-07-29T18:20:26.904Z,22.07
2022-07-29T18:22:59.433Z,22.08
2022-07-29T18:25:31.109Z,22.09
2022-07-29T18:28:01.965Z,22.12
2022-07-29T18:30:37.494Z,21.85
2022-07-29T18:33:24.299Z,21.87
2022-07-29T18:36:11.195Z,21.79
2022-07-29T18:38:44.890Z,21.65
2022-07-29T18:41:20.345Z,21.80
2022-07-29T18:43:49.816Z,21.66
2022-07-29T18:46:18.458Z,21.70
2022-07-29T18:48:50.620Z,21.63
2022-07-29T18:51:19.325Z,21.68
2022-07-29T18:53:47.814Z,21.37
2022-07-29T18:56:15.941Z,21.39
2022-07-29T18:58:44.598Z,21.38
2022-07-29T19:01:16.635Z,21.25
2022-07-29T19:03:45.406Z,21.28
2022-07-29T19:06:18.509Z,21.18
2022-07-29T19:08:49.189Z,21.25
2022-07-29T19:11:18.649Z,20.99
2022-07-29T19:13:47.249Z,21.07
2022-07-29T19:16:16.956Z,21.01
2022-07-29T19:18:47.367Z,20.92
2022-07-29T19:21:17.373Z,20.91
2022-07-29T19:24:05.964Z,20.78
2022-07-29T19:26:36.495Z,20.66
2022-07-29T19:29:07.567Z,20.78
2022-07-29T19:31:36.039Z,20.53
2022-07-29T19:34:07.096Z,20.61
2022-07-29T19:36:39.587Z,20.51
2022-07-29T19:39:11.083Z,20.46
2022-07-29T19:41:39.165Z,20.50
2022-07-29T19:44:11.398Z,20.49
2022-07-29T19:46:42.144Z,20.44
2022-07-29T19:49:11.534Z,20.45
2022-07-29T19:51:42.919Z,20.40
2022-07-29T19:54:11.886Z,20.34
2022-07-29T19:56:44.909Z,20.27
2022-07-29T19:59:16.675Z,20.31
2022-07-29T20:01:45.072Z,20.33
2022-07-29T20:04:13.398Z,19.54
2022-07-29T20:06:45.450Z,20.14
2022-07-29T20:09:17.007Z,20.12
2022-07-29T20:11:49.287Z,19.96
2022-07-29T20:14:17.777Z,20.20
2022-07-29T20:16:46.467Z,19.90
2022-07-29T20:19:20.324Z,19.98
2022-07-29T20:21:50.761Z,20.01
2022-07-29T20:24:19.323Z,19.85
2022-07-29T20:26:50.827Z,19.76
2022-07-29T20:29:18.959Z,19.57
2022-07-29T20:31:53.507Z,19.57
2022-07-29T20:34:25.203Z,19.56
2022-07-29T20:37:01.606Z,19.31
2022-07-29T20:39:30.457Z,18.92
2022-07-29T20:42:00.963Z,19.06
2022-07-29T20:44:29.582Z,18.84
2022-07-29T20:47:03.790Z,18.86
2022-07-29T20:49:36.587Z,18.84
2022-07-29T20:52:19.686Z,18.78
2022-07-29T20:54:48.180Z,18.72
2022-07-29T20:57:16.693Z,18.77
2022-07-29T20:59:45.904Z,18.67
2022-07-29T21:02:17.790Z,18.64
2022-07-29T22:03:20.816Z,18.02
2022-07-29T22:06:01.108Z,17.98
2022-07-29T22:08:32.144Z,17.95
2022-07-29T22:11:01.755Z,17.94
2022-07-29T22:13:31.342Z,17.97
2022-07-29T22:16:00.381Z,17.95
2022-07-29T22:18:35.167Z,17.93
2022-07-29T22:21:04.097Z,17.95
2022-07-29T22:23:33.041Z,17.88
2022-07-29T22:26:03.881Z,17.87
2022-07-29T22:28:32.201Z,17.76
2022-07-29T22:31:00.792Z,17.81
2022-07-29T22:33:31.379Z,17.89
2022-07-29T22:36:01.978Z,18.12
2022-07-29T22:38:30.621Z,18.21
2022-07-29T22:41:01.374Z,18.14
2022-07-29T22:43:32.121Z,18.19
2022-07-29T22:46:02.415Z,18.03
2022-07-29T22:48:32.083Z,17.97
2022-07-29T22:51:07.261Z,17.77
2022-07-29T22:53:39.961Z,17.86
2022-07-29T22:56:11.335Z,17.81
2022-07-29T22:58:42.021Z,17.71
2022-07-29T23:01:12.799Z,17.47
2022-07-29T23:03:51.113Z,17.44
2022-07-29T23:06:22.538Z,17.48
2022-07-29T23:08:52.561Z,17.43
2022-07-29T23:11:22.170Z,17.29
2022-07-29T23:13:57.974Z,17.19
2022-07-29T23:16:30.859Z,17.09
2022-07-29T23:18:59.979Z,17.12
2022-07-29T23:21:32.719Z,16.99
2022-07-29T23:24:05.176Z,16.85
2022-07-29T23:26:37.222Z,16.78
2022-07-29T23:29:07.564Z,16.56
2022-07-29T23:31:41.790Z,16.44
2022-07-29T23:34:13.073Z,16.37
2022-07-29T23:36:43.335Z,16.39
2022-07-29T23:39:13.310Z,16.35
2022-07-29T23:41:44.482Z,16.14
2022-07-29T23:44:12.485Z,16.31
2022-07-29T23:46:44.649Z,16.38
2022-07-29T23:49:14.057Z,16.40
2022-07-29T23:51:47.001Z,16.38
2022-07-29T23:54:17.960Z,16.31
2022-07-29T23:56:46.845Z,16.35
2022-07-29T23:59:14.823Z,16.43
